sensor_id;sensor_type;location;lat;lon;timestamp;pressure;altitude;pressure_sealevel;temperature;humidity
62333;BME280;48624;49.812;8.562;2023-02-17T00:00:05;101345.78;;;8.82;82.50
62333;BME280;48624;49.812;8.562;2023-02-17T00:02:32;101343.47;;;8.76;82.85
62333;BME280;48624;49.812;8.562;2023-02-17T00:04:58;101354.59;;;8.82;82.92
62333;BME280;48624;49.812;8.562;2023-02-17T00:07:25;101342.53;;;8.77;82.99
62333;BME280;48624;49.812;8.562;2023-02-17T00:09:56;101345.94;;;8.79;83.71
62333;BME280;48624;49.812;8.562;2023-02-17T00:12:21;101346.59;;;8.84;83.49
62333;BME280;48624;49.812;8.562;2023-02-17T00:14:46;101335.38;;;8.79;83.41
62333;BME280;48624;49.812;8.562;2023-02-17T00:17:12;101335.38;;;8.79;83.47
62333;BME280;48624;49.812;8.562;2023-02-17T00:19:37;101332.38;;;8.67;83.19
62333;BME280;48624;49.812;8.562;2023-02-17T00:22:03;101340.38;;;8.85;83.48
62333;BME280;48624;49.812;8.562;2023-02-17T00:24:30;101342.69;;;8.73;83.57
62333;BME280;48624;49.812;8.562;2023-02-17T00:26:55;101345.16;;;8.77;83.38
62333;BME280;48624;49.812;8.562;2023-02-17T00:29:21;101349.78;;;8.71;82.89
62333;BME280;48624;49.812;8.562;2023-02-17T00:31:47;101349.56;;;8.57;83.62
62333;BME280;48624;49.812;8.562;2023-02-17T00:34:13;101344.94;;;8.62;83.34
62333;BME280;48624;49.812;8.562;2023-02-17T00:36:39;101337.75;;;8.45;83.70
62333;BME280;48624;49.812;8.562;2023-02-17T00:39:05;101340.19;;;8.50;84.15
62333;BME280;48624;49.812;8.562;2023-02-17T00:41:31;101345.50;;;8.48;83.59
62333;BME280;48624;49.812;8.562;2023-02-17T00:43:57;101339.28;;;8.51;84.00
62333;BME280;48624;49.812;8.562;2023-02-17T00:46:23;101335.38;;;8.59;83.92
62333;BME280;48624;49.812;8.562;2023-02-17T00:48:48;101335.28;;;8.61;83.98
62333;BME280;48624;49.812;8.562;2023-02-17T00:51:17;101340.03;;;8.73;83.91
62333;BME280;48624;49.812;8.562;2023-02-17T00:53:43;101342.78;;;8.70;83.78
62333;BME280;48624;49.812;8.562;2023-02-17T00:56:10;101336.31;;;8.78;83.84
62333;BME280;48624;49.812;8.562;2023-02-17T00:58:36;101337.25;;;8.77;84.17
62333;BME280;48624;49.812;8.562;2023-02-17T01:01:02;101331.91;;;8.78;84.42
62333;BME280;48624;49.812;8.562;2023-02-17T01:03:28;101333.94;;;8.71;84.41
62333;BME280;48624;49.812;8.562;2023-02-17T01:05:54;101336.38;;;8.76;84.56
62333;BME280;48624;49.812;8.562;2023-02-17T01:08:21;101341.53;;;8.79;84.49
62333;BME280;48624;49.812;8.562;2023-02-17T01:10:48;101341.88;;;8.91;84.19
62333;BME280;48624;49.812;8.562;2023-02-17T01:13:15;101342.88;;;8.88;84.04
62333;BME280;48624;49.812;8.562;2023-02-17T01:15:50;101345.16;;;8.96;84.08
62333;BME280;48624;49.812;8.562;2023-02-17T01:18:17;101343.16;;;8.82;84.81
62333;BME280;48624;49.812;8.562;2023-02-17T01:20:43;101342.72;;;8.91;84.61
62333;BME280;48624;49.812;8.562;2023-02-17T01:23:10;101351.69;;;8.88;84.86
62333;BME280;48624;49.812;8.562;2023-02-17T01:25:37;101346.44;;;8.87;84.85
62333;BME280;48624;49.812;8.562;2023-02-17T01:28:03;101355.22;;;9.26;83.83
62333;BME280;48624;49.812;8.562;2023-02-17T01:30:28;101347.75;;;9.53;82.82
62333;BME280;48624;49.812;8.562;2023-02-17T01:32:53;101345.91;;;9.36;83.67
62333;BME280;48624;49.812;8.562;2023-02-17T01:35:18;101353.19;;;9.50;83.19
62333;BME280;48624;49.812;8.562;2023-02-17T01:37:44;101347.25;;;9.45;83.65
62333;BME280;48624;49.812;8.562;2023-02-17T01:40:11;101346.09;;;9.51;83.92
62333;BME280;48624;49.812;8.562;2023-02-17T01:42:37;101353.06;;;9.34;84.75
62333;BME280;48624;49.812;8.562;2023-02-17T01:47:48;101341.34;;;9.57;83.96
62333;BME280;48624;49.812;8.562;2023-02-17T01:50:18;101335.84;;;9.44;84.82
62333;BME280;48624;49.812;8.562;2023-02-17T01:52:45;101333.31;;;9.41;84.27
62333;BME280;48624;49.812;8.562;2023-02-17T01:55:14;101334.97;;;9.44;84.54
62333;BME280;48624;49.812;8.562;2023-02-17T01:57:40;101338.81;;;9.74;83.64
62333;BME280;48624;49.812;8.562;2023-02-17T02:00:09;101335.94;;;9.61;83.57
62333;BME280;48624;49.812;8.562;2023-02-17T02:02:36;101325.34;;;9.78;83.26
62333;BME280;48624;49.812;8.562;2023-02-17T02:05:02;101321.44;;;9.50;84.37
62333;BME280;48624;49.812;8.562;2023-02-17T02:07:31;101314.34;;;9.51;83.84
62333;BME280;48624;49.812;8.562;2023-02-17T02:09:58;101303.31;;;9.78;82.75
62333;BME280;48624;49.812;8.562;2023-02-17T02:12:30;101308.47;;;9.63;83.64
62333;BME280;48624;49.812;8.562;2023-02-17T02:15:21;101306.34;;;9.52;83.68
62333;BME280;48624;49.812;8.562;2023-02-17T02:23:55;101282.84;;;9.46;84.71
62333;BME280;48624;49.812;8.562;2023-02-17T02:26:48;101279.03;;;9.52;85.51
62333;BME280;48624;49.812;8.562;2023-02-17T02:35:04;101264.84;;;9.53;86.76
62333;BME280;48624;49.812;8.562;2023-02-17T02:37:37;101262.13;;;9.90;84.52
62333;BME280;48624;49.812;8.562;2023-02-17T02:40:06;101262.84;;;9.58;86.03
62333;BME280;48624;49.812;8.562;2023-02-17T02:42:33;101264.97;;;9.69;85.81
62333;BME280;48624;49.812;8.562;2023-02-17T02:44:59;101260.81;;;9.81;85.19
62333;BME280;48624;49.812;8.562;2023-02-17T02:47:49;101247.19;;;9.89;85.44
62333;BME280;48624;49.812;8.562;2023-02-17T02:50:20;101253.00;;;9.95;84.46
62333;BME280;48624;49.812;8.562;2023-02-17T03:00:29;101252.44;;;9.73;85.66
62333;BME280;48624;49.812;8.562;2023-02-17T03:03:05;101238.75;;;9.64;85.43
62333;BME280;48624;49.812;8.562;2023-02-17T03:05:45;101235.09;;;9.49;85.78
62333;BME280;48624;49.812;8.562;2023-02-17T03:08:19;101230.41;;;9.54;85.59
62333;BME280;48624;49.812;8.562;2023-02-17T03:10:51;101225.41;;;9.48;85.63
62333;BME280;48624;49.812;8.562;2023-02-17T03:13:18;101223.47;;;9.34;86.86
62333;BME280;48624;49.812;8.562;2023-02-17T03:15:44;101225.28;;;9.51;86.75
62333;BME280;48624;49.812;8.562;2023-02-17T03:18:10;101228.22;;;9.45;86.98
62333;BME280;48624;49.812;8.562;2023-02-17T03:20:38;101216.16;;;9.57;86.14
62333;BME280;48624;49.812;8.562;2023-02-17T03:23:05;101224.22;;;9.71;85.87
62333;BME280;48624;49.812;8.562;2023-02-17T03:25:30;101220.59;;;9.39;87.24
62333;BME280;48624;49.812;8.562;2023-02-17T03:27:56;101215.63;;;9.33;87.12
62333;BME280;48624;49.812;8.562;2023-02-17T03:30:21;101223.00;;;9.61;87.08
62333;BME280;48624;49.812;8.562;2023-02-17T03:32:46;101222.69;;;9.50;87.27
62333;BME280;48624;49.812;8.562;2023-02-17T03:35:12;101233.06;;;9.54;87.31
62333;BME280;48624;49.812;8.562;2023-02-17T03:37:37;101233.22;;;9.51;87.96
62333;BME280;48624;49.812;8.562;2023-02-17T03:40:04;101234.06;;;9.52;87.83
62333;BME280;48624;49.812;8.562;2023-02-17T03:42:30;101237.34;;;9.57;87.24
62333;BME280;48624;49.812;8.562;2023-02-17T03:44:56;101234.06;;;9.69;87.45
62333;BME280;48624;49.812;8.562;2023-02-17T03:47:21;101237.84;;;9.81;86.35
62333;BME280;48624;49.812;8.562;2023-02-17T03:49:46;101235.28;;;9.62;87.97
62333;BME280;48624;49.812;8.562;2023-02-17T03:52:12;101233.44;;;9.82;87.57
62333;BME280;48624;49.812;8.562;2023-02-17T03:54:37;101224.88;;;9.77;88.01
62333;BME280;48624;49.812;8.562;2023-02-17T03:57:03;101224.56;;;9.83;88.08
62333;BME280;48624;49.812;8.562;2023-02-17T03:59:29;101232.41;;;9.67;89.31
62333;BME280;48624;49.812;8.562;2023-02-17T04:01:54;101226.59;;;9.60;89.52
62333;BME280;48624;49.812;8.562;2023-02-17T04:04:19;101229.28;;;9.76;89.29
62333;BME280;48624;49.812;8.562;2023-02-17T04:06:45;101228.03;;;9.83;88.82
62333;BME280;48624;49.812;8.562;2023-02-17T04:09:10;101231.69;;;9.81;89.23
62333;BME280;48624;49.812;8.562;2023-02-17T04:11:35;101241.31;;;9.99;88.76
62333;BME280;48624;49.812;8.562;2023-02-17T04:14:01;101233.38;;;9.99;89.28
62333;BME280;48624;49.812;8.562;2023-02-17T04:16:26;101233.84;;;9.90;89.98
62333;BME280;48624;49.812;8.562;2023-02-17T04:18:52;101238.13;;;10.10;88.80
62333;BME280;48624;49.812;8.562;2023-02-17T04:21:17;101236.69;;;9.87;90.39
62333;BME280;48624;49.812;8.562;2023-02-17T04:23:42;101242.28;;;9.81;90.41
62333;BME280;48624;49.812;8.562;2023-02-17T04:26:08;101245.78;;;9.81;90.40
62333;BME280;48624;49.812;8.562;2023-02-17T04:28:39;101241.72;;;9.92;90.10
62333;BME280;48624;49.812;8.562;2023-02-17T04:31:05;101243.31;;;9.96;89.38
62333;BME280;48624;49.812;8.562;2023-02-17T04:33:30;101243.31;;;9.78;90.64
62333;BME280;48624;49.812;8.562;2023-02-17T04:35:55;101244.03;;;9.64;91.37
62333;BME280;48624;49.812;8.562;2023-02-17T04:38:25;101241.97;;;9.87;91.51
62333;BME280;48624;49.812;8.562;2023-02-17T04:40:52;101242.84;;;9.70;91.75
62333;BME280;48624;49.812;8.562;2023-02-17T04:43:18;101243.56;;;9.74;91.20
62333;BME280;48624;49.812;8.562;2023-02-17T04:45:43;101240.25;;;9.86;91.35
62333;BME280;48624;49.812;8.562;2023-02-17T04:48:09;101240.78;;;9.93;91.86
62333;BME280;48624;49.812;8.562;2023-02-17T04:50:34;101244.34;;;9.58;92.61
62333;BME280;48624;49.812;8.562;2023-02-17T04:52:59;101239.28;;;9.71;92.65
62333;BME280;48624;49.812;8.562;2023-02-17T04:55:24;101244.03;;;9.64;92.57
62333;BME280;48624;49.812;8.562;2023-02-17T04:57:50;101237.38;;;9.91;91.54
62333;BME280;48624;49.812;8.562;2023-02-17T05:00:15;101248.69;;;9.77;92.75
62333;BME280;48624;49.812;8.562;2023-02-17T05:02:41;101246.34;;;9.70;92.61
62333;BME280;48624;49.812;8.562;2023-02-17T05:05:06;101248.84;;;9.56;93.57
62333;BME280;48624;49.812;8.562;2023-02-17T05:07:31;101250.03;;;9.50;93.79
62333;BME280;48624;49.812;8.562;2023-02-17T05:09:57;101251.72;;;9.51;93.94
62333;BME280;48624;49.812;8.562;2023-02-17T05:12:22;101253.28;;;9.73;92.97
62333;BME280;48624;49.812;8.562;2023-02-17T05:14:47;101249.84;;;9.53;94.89
62333;BME280;48624;49.812;8.562;2023-02-17T05:17:12;101243.16;;;9.64;94.58
62333;BME280;48624;49.812;8.562;2023-02-17T05:19:39;101240.69;;;9.78;93.65
62333;BME280;48624;49.812;8.562;2023-02-17T05:22:04;101233.75;;;9.76;94.18
62333;BME280;48624;49.812;8.562;2023-02-17T05:24:29;101237.81;;;9.65;95.21
62333;BME280;48624;49.812;8.562;2023-02-17T05:26:55;101243.38;;;9.77;94.54
62333;BME280;48624;49.812;8.562;2023-02-17T05:29:20;101243.59;;;9.90;94.09
62333;BME280;48624;49.812;8.562;2023-02-17T05:31:47;101246.03;;;9.77;94.29
62333;BME280;48624;49.812;8.562;2023-02-17T05:34:12;101246.50;;;9.67;94.83
62333;BME280;48624;49.812;8.562;2023-02-17T05:36:37;101243.94;;;9.66;94.94
62333;BME280;48624;49.812;8.562;2023-02-17T05:39:03;101242.69;;;9.73;94.79
62333;BME280;48624;49.812;8.562;2023-02-17T05:41:28;101232.63;;;10.13;93.46
62333;BME280;48624;49.812;8.562;2023-02-17T05:43:53;101248.41;;;9.99;94.24
62333;BME280;48624;49.812;8.562;2023-02-17T05:46:19;101241.28;;;9.83;95.25
62333;BME280;48624;49.812;8.562;2023-02-17T05:48:44;101242.94;;;9.68;95.46
62333;BME280;48624;49.812;8.562;2023-02-17T05:51:10;101244.50;;;9.73;95.16
62333;BME280;48624;49.812;8.562;2023-02-17T05:53:38;101257.69;;;9.90;95.58
62333;BME280;48624;49.812;8.562;2023-02-17T05:56:03;101250.38;;;9.78;95.00
62333;BME280;48624;49.812;8.562;2023-02-17T05:58:28;101252.88;;;9.81;95.61
62333;BME280;48624;49.812;8.562;2023-02-17T06:00:54;101250.78;;;9.88;94.32
62333;BME280;48624;49.812;8.562;2023-02-17T06:03:19;101243.38;;;9.77;95.52
62333;BME280;48624;49.812;8.562;2023-02-17T06:05:44;101252.38;;;9.90;94.07
62333;BME280;48624;49.812;8.562;2023-02-17T06:08:10;101257.06;;;10.03;93.17
62333;BME280;48624;49.812;8.562;2023-02-17T06:10:36;101242.94;;;10.02;93.68
62333;BME280;48624;49.812;8.562;2023-02-17T06:13:01;101250.78;;;9.88;94.54
62333;BME280;48624;49.812;8.562;2023-02-17T06:15:26;101255.75;;;9.76;94.59
62333;BME280;48624;49.812;8.562;2023-02-17T06:17:51;101253.88;;;9.96;93.95
62333;BME280;48624;49.812;8.562;2023-02-17T06:20:18;101257.84;;;9.87;94.83
62333;BME280;48624;49.812;8.562;2023-02-17T06:22:43;101262.94;;;10.08;94.17
62333;BME280;48624;49.812;8.562;2023-02-17T06:25:09;101272.75;;;10.23;93.45
62333;BME280;48624;49.812;8.562;2023-02-17T06:27:34;101273.72;;;10.05;93.85
62333;BME280;48624;49.812;8.562;2023-02-17T06:30:00;101263.31;;;9.66;96.24
62333;BME280;48624;49.812;8.562;2023-02-17T06:32:26;101269.38;;;9.68;95.80
62333;BME280;48624;49.812;8.562;2023-02-17T06:34:52;101269.53;;;9.83;95.70
62333;BME280;48624;49.812;8.562;2023-02-17T06:37:17;101272.44;;;9.61;96.93
62333;BME280;48624;49.812;8.562;2023-02-17T06:39:42;101269.31;;;9.70;96.34
62333;BME280;48624;49.812;8.562;2023-02-17T06:42:08;101267.22;;;9.59;96.81
62333;BME280;48624;49.812;8.562;2023-02-17T06:44:33;101273.75;;;9.69;96.84
62333;BME280;48624;49.812;8.562;2023-02-17T06:46:58;101272.09;;;9.67;97.91
62333;BME280;48624;49.812;8.562;2023-02-17T06:49:24;101253.81;;;9.62;97.84
62333;BME280;48624;49.812;8.562;2023-02-17T06:51:49;101256.78;;;9.56;98.27
62333;BME280;48624;49.812;8.562;2023-02-17T06:54:14;101264.84;;;9.53;98.47
62333;BME280;48624;49.812;8.562;2023-02-17T06:56:40;101278.91;;;9.73;97.71
62333;BME280;48624;49.812;8.562;2023-02-17T06:59:05;101288.06;;;9.65;98.32
62333;BME280;48624;49.812;8.562;2023-02-17T07:01:30;101286.19;;;9.50;98.97
62333;BME280;48624;49.812;8.562;2023-02-17T07:03:56;101296.53;;;9.54;98.74
62333;BME280;48624;49.812;8.562;2023-02-17T07:06:22;101293.59;;;9.78;97.04
62333;BME280;48624;49.812;8.562;2023-02-17T07:08:48;101295.69;;;9.71;98.32
62333;BME280;48624;49.812;8.562;2023-02-17T07:11:14;101296.09;;;9.81;97.13
62333;BME280;48624;49.812;8.562;2023-02-17T07:13:40;101301.75;;;9.56;98.43
62333;BME280;48624;49.812;8.562;2023-02-17T07:16:08;101290.00;;;9.62;98.73
62333;BME280;48624;49.812;8.562;2023-02-17T07:18:34;101312.88;;;9.63;99.57
62333;BME280;48624;49.812;8.562;2023-02-17T07:21:02;101310.41;;;9.77;98.22
62333;BME280;48624;49.812;8.562;2023-02-17T07:23:28;101310.47;;;9.58;99.25
62333;BME280;48624;49.812;8.562;2023-02-17T07:25:54;101313.19;;;9.56;99.21
62333;BME280;48624;49.812;8.562;2023-02-17T07:28:19;101321.75;;;9.62;99.36
62333;BME280;48624;49.812;8.562;2023-02-17T07:30:44;101314.44;;;9.49;99.92
62333;BME280;48624;49.812;8.562;2023-02-17T07:33:10;101315.47;;;9.64;99.88
62333;BME280;48624;49.812;8.562;2023-02-17T07:35:42;101323.78;;;9.74;99.24
62333;BME280;48624;49.812;8.562;2023-02-17T07:38:11;101301.66;;;9.75;99.46
62333;BME280;48624;49.812;8.562;2023-02-17T07:40:37;101304.06;;;9.62;99.82
62333;BME280;48624;49.812;8.562;2023-02-17T07:43:03;101300.53;;;9.63;100.00
62333;BME280;48624;49.812;8.562;2023-02-17T07:45:28;101283.31;;;9.72;99.78
62333;BME280;48624;49.812;8.562;2023-02-17T07:47:54;101282.38;;;9.73;99.33
62333;BME280;48624;49.812;8.562;2023-02-17T07:50:19;101286.25;;;9.83;99.35
62333;BME280;48624;49.812;8.562;2023-02-17T07:52:45;101294.13;;;9.85;99.42
62333;BME280;48624;49.812;8.562;2023-02-17T07:55:10;101285.50;;;9.81;99.69
62333;BME280;48624;49.812;8.562;2023-02-17T07:57:36;101289.47;;;9.73;99.68
62333;BME280;48624;49.812;8.562;2023-02-17T08:00:03;101288.69;;;9.88;99.11
62333;BME280;48624;49.812;8.562;2023-02-17T08:02:28;101294.78;;;9.73;99.82
62333;BME280;48624;49.812;8.562;2023-02-17T08:04:53;101284.84;;;9.94;99.02
62333;BME280;48624;49.812;8.562;2023-02-17T08:07:20;101286.03;;;9.88;99.14
62333;BME280;48624;49.812;8.562;2023-02-17T08:09:46;101288.13;;;9.99;99.19
62333;BME280;48624;49.812;8.562;2023-02-17T08:12:30;101301.72;;;10.09;98.07
62333;BME280;48624;49.812;8.562;2023-02-17T08:15:34;101291.19;;;9.91;99.07
62333;BME280;48624;49.812;8.562;2023-02-17T08:17:59;101297.28;;;10.09;97.87
62333;BME280;48624;49.812;8.562;2023-02-17T08:20:26;101292.81;;;10.27;97.75
62333;BME280;48624;49.812;8.562;2023-02-17T08:22:51;101286.72;;;10.09;97.36
62333;BME280;48624;49.812;8.562;2023-02-17T08:25:17;101297.03;;;10.32;96.81
62333;BME280;48624;49.812;8.562;2023-02-17T08:27:43;101290.78;;;10.50;95.94
62333;BME280;48624;49.812;8.562;2023-02-17T08:30:09;101291.97;;;10.27;97.45
62333;BME280;48624;49.812;8.562;2023-02-17T08:32:34;101290.03;;;10.31;97.23
62333;BME280;48624;49.812;8.562;2023-02-17T08:34:59;101296.16;;;10.31;96.43
62333;BME280;48624;49.812;8.562;2023-02-17T08:37:25;101275.47;;;10.22;97.83
62333;BME280;48624;49.812;8.562;2023-02-17T08:39:52;101289.22;;;10.46;96.04
62333;BME280;48624;49.812;8.562;2023-02-17T08:42:17;101284.28;;;10.56;95.38
62333;BME280;48624;49.812;8.562;2023-02-17T08:44:43;101294.19;;;10.52;94.78
62333;BME280;48624;49.812;8.562;2023-02-17T08:47:09;101294.25;;;10.51;94.97
62333;BME280;48624;49.812;8.562;2023-02-17T08:49:34;101299.88;;;10.78;94.67
62333;BME280;48624;49.812;8.562;2023-02-17T08:52:00;101302.66;;;10.75;93.98
62333;BME280;48624;49.812;8.562;2023-02-17T08:54:26;101305.72;;;10.51;95.83
62333;BME280;48624;49.812;8.562;2023-02-17T08:56:51;101294.28;;;10.67;94.87
62333;BME280;48624;49.812;8.562;2023-02-17T08:59:16;101303.09;;;10.67;96.16
62333;BME280;48624;49.812;8.562;2023-02-17T09:01:42;101295.56;;;10.44;97.29
62333;BME280;48624;49.812;8.562;2023-02-17T09:04:10;101297.41;;;10.41;97.88
62333;BME280;48624;49.812;8.562;2023-02-17T09:06:39;101294.50;;;10.28;98.57
62333;BME280;48624;49.812;8.562;2023-02-17T09:09:07;101308.44;;;10.50;97.63
62333;BME280;48624;49.812;8.562;2023-02-17T09:11:32;101309.56;;;10.28;99.30
62333;BME280;48624;49.812;8.562;2023-02-17T09:13:59;101317.78;;;10.39;99.44
62333;BME280;48624;49.812;8.562;2023-02-17T09:16:25;101310.59;;;10.25;99.97
62333;BME280;48624;49.812;8.562;2023-02-17T09:18:51;101306.28;;;10.23;100.00
62333;BME280;48624;49.812;8.562;2023-02-17T09:21:17;101311.50;;;10.42;99.48
62333;BME280;48624;49.812;8.562;2023-02-17T09:23:42;101320.34;;;10.07;100.00
62333;BME280;48624;49.812;8.562;2023-02-17T09:26:10;101328.78;;;9.98;100.00
62333;BME280;48624;49.812;8.562;2023-02-17T09:28:36;101324.72;;;10.08;100.00
62333;BME280;48624;49.812;8.562;2023-02-17T09:33:38;101316.66;;;10.10;100.00
62333;BME280;48624;49.812;8.562;2023-02-17T09:36:09;101312.88;;;9.98;100.00
62333;BME280;48624;49.812;8.562;2023-02-17T09:38:36;101320.13;;;9.94;100.00
62333;BME280;48624;49.812;8.562;2023-02-17T09:43:41;101306.38;;;9.88;100.00
62333;BME280;48624;49.812;8.562;2023-02-17T09:46:20;101303.31;;;9.78;100.00
62333;BME280;48624;49.812;8.562;2023-02-17T09:48:49;101310.53;;;9.56;100.00
62333;BME280;48624;49.812;8.562;2023-02-17T09:51:21;101309.69;;;9.56;100.00
62333;BME280;48624;49.812;8.562;2023-02-17T09:56:31;101327.13;;;9.60;100.00
62333;BME280;48624;49.812;8.562;2023-02-17T09:58:58;101336.00;;;9.59;100.00
62333;BME280;48624;49.812;8.562;2023-02-17T10:01:28;101330.34;;;9.30;100.00
62333;BME280;48624;49.812;8.562;2023-02-17T10:04:00;101329.13;;;9.37;100.00
62333;BME280;48624;49.812;8.562;2023-02-17T10:06:34;101331.91;;;9.34;100.00
62333;BME280;48624;49.812;8.562;2023-02-17T10:09:06;101344.34;;;9.32;100.00
62333;BME280;48624;49.812;8.562;2023-02-17T10:14:26;101344.00;;;9.40;100.00
62333;BME280;48624;49.812;8.562;2023-02-17T10:16:59;101349.84;;;9.27;100.00
62333;BME280;48624;49.812;8.562;2023-02-17T10:19:36;101346.50;;;9.24;100.00
62333;BME280;48624;49.812;8.562;2023-02-17T10:22:13;101339.81;;;9.34;100.00
62333;BME280;48624;49.812;8.562;2023-02-17T10:24:39;101336.50;;;9.30;100.00
62333;BME280;48624;49.812;8.562;2023-02-17T10:32:59;101335.63;;;9.30;100.00
62333;BME280;48624;49.812;8.562;2023-02-17T10:38:15;101332.94;;;9.32;100.00
62333;BME280;48624;49.812;8.562;2023-02-17T10:40:44;101338.03;;;9.54;100.00
62333;BME280;48624;49.812;8.562;2023-02-17T10:43:14;101343.38;;;9.52;100.00
62333;BME280;48624;49.812;8.562;2023-02-17T10:45:42;101342.03;;;9.43;100.00
62333;BME280;48624;49.812;8.562;2023-02-17T10:48:19;101346.13;;;9.68;100.00
62333;BME280;48624;49.812;8.562;2023-02-17T10:50:47;101337.78;;;9.76;100.00
62333;BME280;48624;49.812;8.562;2023-02-17T10:53:25;101336.78;;;9.79;100.00
62333;BME280;48624;49.812;8.562;2023-02-17T10:59:04;101339.78;;;10.24;100.00
62333;BME280;48624;49.812;8.562;2023-02-17T11:01:31;101337.75;;;10.29;100.00
62333;BME280;48624;49.812;8.562;2023-02-17T11:04:03;101332.53;;;10.45;100.00
62333;BME280;48624;49.812;8.562;2023-02-17T11:06:29;101342.25;;;10.62;100.00
62333;BME280;48624;49.812;8.562;2023-02-17T11:09:02;101337.72;;;10.80;100.00
62333;BME280;48624;49.812;8.562;2023-02-17T11:11:34;101333.13;;;10.68;100.00
62333;BME280;48624;49.812;8.562;2023-02-17T11:16:46;101337.47;;;10.85;100.00
62333;BME280;48624;49.812;8.562;2023-02-17T11:19:29;101329.59;;;10.67;100.00
62333;BME280;48624;49.812;8.562;2023-02-17T11:21:56;101327.13;;;10.96;100.00
62333;BME280;48624;49.812;8.562;2023-02-17T11:24:23;101326.81;;;11.03;100.00
62333;BME280;48624;49.812;8.562;2023-02-17T11:29:24;101319.94;;;10.99;100.00
62333;BME280;48624;49.812;8.562;2023-02-17T11:32:13;101315.59;;;10.98;100.00
62333;BME280;48624;49.812;8.562;2023-02-17T11:34:41;101321.06;;;10.94;100.00
62333;BME280;48624;49.812;8.562;2023-02-17T11:39:45;101305.84;;;10.98;100.00
62333;BME280;48624;49.812;8.562;2023-02-17T11:42:30;101305.75;;;11.16;100.00
62333;BME280;48624;49.812;8.562;2023-02-17T11:44:59;101309.75;;;11.23;100.00
62333;BME280;48624;49.812;8.562;2023-02-17T11:50:36;101297.63;;;11.19;100.00
62333;BME280;48624;49.812;8.562;2023-02-17T11:56:03;101288.94;;;11.31;100.00
62333;BME280;48624;49.812;8.562;2023-02-17T11:58:50;101294.34;;;11.30;100.00
62333;BME280;48624;49.812;8.562;2023-02-17T12:01:51;101288.94;;;11.31;100.00
62333;BME280;48624;49.812;8.562;2023-02-17T12:12:23;101285.28;;;11.64;98.42
62333;BME280;48624;49.812;8.562;2023-02-17T12:18:08;101292.75;;;11.58;98.37
62333;BME280;48624;49.812;8.562;2023-02-17T12:20:53;101287.25;;;11.61;99.43
62333;BME280;48624;49.812;8.562;2023-02-17T12:23:36;101276.38;;;11.65;99.13
62333;BME280;48624;49.812;8.562;2023-02-17T12:36:58;101272.13;;;11.92;97.70
62333;BME280;48624;49.812;8.562;2023-02-17T12:39:29;101277.16;;;11.97;97.87
62333;BME280;48624;49.812;8.562;2023-02-17T12:44:34;101273.25;;;12.04;97.06
62333;BME280;48624;49.812;8.562;2023-02-17T12:47:50;101276.50;;;11.93;97.72
62333;BME280;48624;49.812;8.562;2023-02-17T12:49:58;101273.72;;;12.11;96.32
62333;BME280;48624;49.812;8.562;2023-02-17T12:52:32;101262.88;;;11.99;96.32
62333;BME280;48624;49.812;8.562;2023-02-17T12:55:23;101256.84;;;12.26;95.31
62333;BME280;48624;49.812;8.562;2023-02-17T12:58:00;101261.69;;;12.19;96.00
62333;BME280;48624;49.812;8.562;2023-02-17T13:00:32;101258.06;;;12.20;95.75
62333;BME280;48624;49.812;8.562;2023-02-17T13:02:59;101256.16;;;12.37;93.79
62333;BME280;48624;49.812;8.562;2023-02-17T13:05:29;101256.75;;;12.13;96.34
62333;BME280;48624;49.812;8.562;2023-02-17T13:11:00;101252.34;;;12.27;94.51
62333;BME280;48624;49.812;8.562;2023-02-17T13:13:28;101240.69;;;12.44;94.02
62333;BME280;48624;49.812;8.562;2023-02-17T13:16:06;101222.66;;;12.20;94.13
62333;BME280;48624;49.812;8.562;2023-02-17T13:18:34;101244.97;;;12.03;94.92
62333;BME280;48624;49.812;8.562;2023-02-17T13:26:25;101248.94;;;12.25;94.74
62333;BME280;48624;49.812;8.562;2023-02-17T13:28:53;101252.84;;;12.19;94.36
62333;BME280;48624;49.812;8.562;2023-02-17T13:31:22;101263.56;;;12.17;94.18
62333;BME280;48624;49.812;8.562;2023-02-17T13:33:51;101255.41;;;12.06;95.26
62333;BME280;48624;49.812;8.562;2023-02-17T13:41:54;101258.34;;;12.16;94.80
62333;BME280;48624;49.812;8.562;2023-02-17T13:47:11;101247.22;;;12.09;95.71
62333;BME280;48624;49.812;8.562;2023-02-17T13:49:40;101251.06;;;11.74;96.97
62333;BME280;48624;49.812;8.562;2023-02-17T13:52:10;101247.03;;;12.27;94.66
62333;BME280;48624;49.812;8.562;2023-02-17T13:54:36;101232.47;;;12.19;94.80
62333;BME280;48624;49.812;8.562;2023-02-17T13:57:01;101228.34;;;11.99;96.58
62333;BME280;48624;49.812;8.562;2023-02-17T13:59:26;101225.63;;;12.30;94.87
62333;BME280;48624;49.812;8.562;2023-02-17T14:01:52;101226.66;;;12.13;95.87
62333;BME280;48624;49.812;8.562;2023-02-17T14:04:27;101221.59;;;12.37;94.84
62333;BME280;48624;49.812;8.562;2023-02-17T14:06:59;101218.78;;;12.26;95.53
62333;BME280;48624;49.812;8.562;2023-02-17T14:09:31;101205.97;;;12.18;95.43
62333;BME280;48624;49.812;8.562;2023-02-17T14:11:57;101206.25;;;12.70;93.08
62333;BME280;48624;49.812;8.562;2023-02-17T14:14:28;101195.59;;;12.57;93.43
62333;BME280;48624;49.812;8.562;2023-02-17T14:17:00;101204.38;;;12.15;95.35
62333;BME280;48624;49.812;8.562;2023-02-17T14:19:26;101196.94;;;12.35;94.63
62333;BME280;48624;49.812;8.562;2023-02-17T14:22:02;101199.13;;;12.14;95.03
62333;BME280;48624;49.812;8.562;2023-02-17T14:24:31;101215.38;;;12.24;95.15
62333;BME280;48624;49.812;8.562;2023-02-17T14:27:08;101211.84;;;12.23;95.06
62333;BME280;48624;49.812;8.562;2023-02-17T14:29:48;101211.88;;;12.09;96.10
62333;BME280;48624;49.812;8.562;2023-02-17T14:32:33;101204.25;;;11.88;97.41
62333;BME280;48624;49.812;8.562;2023-02-17T14:37:40;101204.94;;;12.20;96.15
62333;BME280;48624;49.812;8.562;2023-02-17T14:42:56;101198.84;;;12.33;95.29
62333;BME280;48624;49.812;8.562;2023-02-17T14:45:21;101209.38;;;11.91;97.99